createdAt,value
2023-02-28T00:00:41.076Z,1.14
2023-02-28T00:03:08.856Z,1.10
2023-02-28T00:05:36.319Z,0.98
2023-02-28T00:08:05.359Z,1.03
2023-02-28T00:10:33.740Z,1.14
2023-02-28T00:13:03.280Z,1.22
2023-02-28T00:15:30.680Z,1.25
2023-02-28T00:17:58.159Z,1.22
2023-02-28T00:20:25.898Z,1.14
2023-02-28T00:22:54.694Z,1.18
2023-02-28T00:25:25.603Z,1.11
2023-02-28T00:27:53.501Z,1.16
2023-02-28T00:30:22.142Z,1.04
2023-02-28T00:32:49.703Z,0.90
2023-02-28T00:35:17.349Z,0.96
2023-02-28T00:37:45.395Z,0.93
2023-02-28T00:40:13.457Z,1.03
2023-02-28T00:42:42.193Z,1.01
2023-02-28T00:45:10.239Z,0.95
2023-02-28T00:47:37.777Z,0.74
2023-02-28T00:50:06.729Z,0.72
2023-02-28T00:52:34.561Z,0.67
2023-02-28T00:55:02.018Z,0.76
2023-02-28T00:57:29.381Z,0.83
2023-02-28T00:59:58.186Z,0.76
2023-02-28T01:02:25.596Z,0.82
2023-02-28T01:04:53.125Z,0.81
2023-02-28T01:07:20.562Z,0.86
2023-02-28T01:09:47.933Z,0.89
2023-02-28T01:12:15.321Z,0.90
2023-02-28T01:14:43.455Z,0.98
2023-02-28T01:17:12.145Z,0.93
2023-02-28T01:19:39.527Z,0.95
2023-02-28T01:22:07.919Z,0.97
2023-02-28T01:24:35.733Z,1.00
2023-02-28T01:27:03.095Z,0.96
2023-02-28T01:29:30.492Z,0.94
2023-02-28T01:31:58.169Z,0.89
2023-02-28T01:34:26.921Z,0.88
2023-02-28T01:36:54.317Z,0.69
2023-02-28T01:39:21.758Z,0.78
2023-02-28T01:41:49.123Z,0.73
2023-02-28T01:44:54.049Z,0.64
2023-02-28T01:47:22.086Z,0.74
2023-02-28T01:49:52.467Z,0.53
2023-02-28T01:52:20.869Z,0.47
2023-02-28T01:54:52.774Z,0.44
2023-02-28T01:57:23.489Z,0.39
2023-02-28T01:59:56.305Z,0.36
2023-02-28T02:02:25.983Z,0.43
2023-02-28T02:04:59.427Z,0.61
2023-02-28T02:07:28.384Z,0.54
2023-02-28T02:10:03.187Z,0.45
2023-02-28T02:12:46.694Z,0.61
2023-02-28T02:15:18.330Z,0.80
2023-02-28T02:17:50.416Z,0.59
2023-02-28T02:21:07.558Z,0.61
2023-02-28T02:23:58.906Z,0.44
2023-02-28T02:26:57.384Z,0.33
2023-02-28T02:29:47.623Z,0.39
2023-02-28T02:32:46.554Z,0.58
2023-02-28T02:35:18.953Z,0.52
2023-02-28T02:37:51.663Z,0.46
2023-02-28T02:40:23.398Z,0.30
2023-02-28T02:42:56.918Z,0.41
2023-02-28T02:45:28.191Z,0.45
2023-02-28T02:47:58.444Z,0.34
2023-02-28T02:50:33.223Z,0.34
2023-02-28T02:53:03.174Z,0.44
2023-02-28T02:55:34.295Z,0.29
2023-02-28T02:58:05.490Z,0.26
2023-02-28T03:00:36.916Z,0.24
2023-02-28T03:03:05.954Z,0.13
2023-02-28T03:05:41.482Z,0.18
2023-02-28T03:08:08.855Z,0.13
2023-02-28T03:10:39.147Z,-0.07
2023-02-28T03:13:29.016Z,0.16
2023-02-28T03:16:14.008Z,0.13
2023-02-28T03:18:50.183Z,-0.03
2023-02-28T03:21:25.387Z,-0.12
2023-02-28T03:24:02.039Z,0.00
2023-02-28T03:26:31.171Z,0.01
2023-02-28T03:29:05.142Z,-0.29
2023-02-28T03:31:38.291Z,-0.47
2023-02-28T03:34:10.916Z,-0.56
2023-02-28T03:36:46.438Z,-0.50
2023-02-28T03:39:17.350Z,-0.67
2023-02-28T03:41:50.636Z,-0.40
2023-02-28T03:44:23.178Z,-0.51
2023-02-28T03:46:59.227Z,-0.43
2023-02-28T03:49:32.220Z,-0.45
2023-02-28T03:52:04.860Z,-0.48
2023-02-28T03:54:36.145Z,-0.66
2023-02-28T03:57:08.677Z,-0.44
2023-02-28T03:59:41.569Z,-0.61
2023-02-28T04:02:09.805Z,-0.70
2023-02-28T04:04:37.796Z,-0.72
2023-02-28T04:07:08.848Z,-0.51
2023-02-28T04:09:36.496Z,-0.86
2023-02-28T04:12:04.107Z,-0.82
2023-02-28T04:14:31.789Z,-0.72
2023-02-28T04:16:59.226Z,-0.86
2023-02-28T04:19:26.643Z,-0.89
2023-02-28T04:21:55.146Z,-0.73
2023-02-28T04:24:25.844Z,-0.86
2023-02-28T04:26:54.703Z,-0.74
2023-02-28T04:29:24.572Z,-0.75
2023-02-28T04:31:54.117Z,-0.85
2023-02-28T04:34:22.090Z,-0.85
2023-02-28T04:37:06.071Z,-0.96
2023-02-28T04:39:40.440Z,-1.02
2023-02-28T04:42:08.025Z,-1.20
2023-02-28T04:44:35.407Z,-1.19
2023-02-28T04:47:02.779Z,-1.02
2023-02-28T04:49:30.624Z,-0.87
2023-02-28T04:51:57.991Z,-0.83
2023-02-28T04:54:25.476Z,-1.09
2023-02-28T04:56:54.194Z,-1.14
2023-02-28T04:59:21.578Z,-1.26
2023-02-28T05:01:50.984Z,-1.12
2023-02-28T05:04:19.341Z,-1.02
2023-02-28T05:06:46.796Z,-1.10
2023-02-28T05:09:14.168Z,-1.19
2023-02-28T05:11:42.099Z,-1.50
2023-02-28T05:14:13.058Z,-1.59
2023-02-28T05:16:40.811Z,-1.52
2023-02-28T05:19:08.318Z,-1.58
2023-02-28T05:21:37.825Z,-1.71
2023-02-28T05:24:07.606Z,-1.64
2023-02-28T05:26:38.178Z,-1.67
2023-02-28T05:29:06.003Z,-1.89
2023-02-28T05:31:35.702Z,-1.83
2023-02-28T05:34:05.007Z,-1.91
2023-02-28T05:36:32.834Z,-1.93
2023-02-28T05:39:00.301Z,-1.90
2023-02-28T05:41:28.502Z,-1.92
2023-02-28T05:43:56.270Z,-1.86
2023-02-28T05:46:23.758Z,-2.22
2023-02-28T05:48:52.499Z,-2.18
2023-02-28T05:51:19.900Z,-2.07
2023-02-28T05:53:48.051Z,-2.20
2023-02-28T05:56:15.424Z,-2.00
2023-02-28T05:58:42.835Z,-2.16
2023-02-28T06:01:25.549Z,-2.04
2023-02-28T06:03:54.223Z,-2.25
2023-02-28T06:06:21.603Z,-2.12
2023-02-28T06:08:49.080Z,-2.27
2023-02-28T06:11:16.474Z,-2.27
2023-02-28T06:13:43.855Z,-2.21
2023-02-28T06:16:12.496Z,-2.21
2023-02-28T06:18:39.981Z,-2.05
2023-02-28T06:21:09.939Z,-2.10
2023-02-28T06:23:37.598Z,-2.01
2023-02-28T06:26:05.435Z,-1.94
2023-02-28T06:28:32.822Z,-1.93
2023-02-28T06:31:00.269Z,-1.92
2023-02-28T06:33:27.675Z,-1.81
2023-02-28T06:35:55.194Z,-1.72
2023-02-28T06:38:24.306Z,-1.71
2023-02-28T06:40:55.774Z,-1.75
2023-02-28T06:43:23.223Z,-1.76
2023-02-28T06:45:51.027Z,-1.71
2023-02-28T06:48:18.805Z,-1.71
2023-02-28T06:50:46.197Z,-1.54
2023-02-28T06:53:13.617Z,-1.37
2023-02-28T06:55:43.008Z,-1.17
2023-02-28T06:58:15.758Z,-0.98
2023-02-28T07:00:43.683Z,-0.77
2023-02-28T07:03:11.102Z,-0.65
2023-02-28T07:05:38.963Z,-0.49
2023-02-28T07:08:07.116Z,-0.26
2023-02-28T07:10:34.990Z,0.03
2023-02-28T07:13:05.135Z,0.28
2023-02-28T07:15:32.547Z,0.49
2023-02-28T07:17:59.980Z,0.72
2023-02-28T07:20:27.489Z,0.85
2023-02-28T07:22:57.063Z,0.87
2023-02-28T07:25:25.161Z,0.73
2023-02-28T07:27:52.601Z,0.87
2023-02-28T07:30:21.547Z,0.95
2023-02-28T07:32:49.048Z,0.92
2023-02-28T07:35:17.093Z,1.02
2023-02-28T07:37:44.516Z,1.32
2023-02-28T07:40:13.662Z,1.46
2023-02-28T07:42:41.844Z,1.49
2023-02-28T07:45:12.682Z,1.69
2023-02-28T07:47:41.481Z,1.85
2023-02-28T07:50:10.904Z,2.00
2023-02-28T07:52:39.441Z,2.00
2023-02-28T07:55:08.429Z,2.34
2023-02-28T07:57:36.100Z,2.41
2023-02-28T08:00:04.335Z,2.56
2023-02-28T08:02:31.805Z,2.59
2023-02-28T08:05:01.987Z,2.47
2023-02-28T08:07:29.546Z,2.68
2023-02-28T08:09:56.924Z,2.78
2023-02-28T08:12:24.277Z,3.01
2023-02-28T08:14:51.683Z,3.11
2023-02-28T08:17:19.210Z,2.90
2023-02-28T08:19:47.313Z,2.68
2023-02-28T08:22:16.025Z,2.79
2023-02-28T08:24:44.669Z,2.65
2023-02-28T08:27:12.101Z,2.65
2023-02-28T08:29:39.727Z,2.68
2023-02-28T08:32:14.594Z,2.72
2023-02-28T08:34:48.233Z,2.80
2023-02-28T08:37:17.000Z,2.49
2023-02-28T08:39:44.413Z,2.74
2023-02-28T08:42:11.828Z,2.78
2023-02-28T08:44:39.255Z,3.01
2023-02-28T08:47:06.625Z,2.98
2023-02-28T08:49:34.276Z,3.09
2023-02-28T08:52:01.642Z,3.18
2023-02-28T08:54:32.382Z,3.26
2023-02-28T08:56:59.882Z,3.45
2023-02-28T08:59:27.313Z,3.25
2023-02-28T09:01:54.690Z,3.37
2023-02-28T09:04:23.950Z,3.78
2023-02-28T09:06:52.388Z,3.90
2023-02-28T09:09:19.826Z,3.84
2023-02-28T09:11:48.531Z,4.30
2023-02-28T09:14:15.922Z,4.32
2023-02-28T09:16:43.304Z,4.50
2023-02-28T09:19:12.947Z,4.91
2023-02-28T09:21:40.580Z,4.99
2023-02-28T09:24:08.831Z,5.12
2023-02-28T09:26:43.110Z,5.24
2023-02-28T09:29:17.667Z,4.97
2023-02-28T09:31:45.411Z,5.12
2023-02-28T09:34:12.993Z,4.85
2023-02-28T09:36:45.523Z,5.10
2023-02-28T09:39:16.256Z,4.85
2023-02-28T09:41:49.465Z,4.48
2023-02-28T09:44:27.539Z,4.66
2023-02-28T09:47:00.242Z,4.85
2023-02-28T09:49:35.102Z,4.86
2023-02-28T09:52:06.256Z,4.45
2023-02-28T09:54:37.782Z,4.71
2023-02-28T09:57:09.327Z,4.71
2023-02-28T09:59:46.363Z,4.94
2023-02-28T10:02:23.727Z,5.16
2023-02-28T10:04:57.144Z,5.12
2023-02-28T10:07:44.482Z,4.85
2023-02-28T10:10:22.552Z,4.34
2023-02-28T10:12:54.521Z,4.30
2023-02-28T10:15:25.352Z,4.16
2023-02-28T10:18:08.543Z,4.00
2023-02-28T10:20:39.626Z,4.27
2023-02-28T10:23:15.889Z,4.04
2023-02-28T10:25:48.945Z,3.80
2023-02-28T10:28:19.037Z,3.60
2023-02-28T10:30:50.034Z,3.42
2023-02-28T10:33:23.422Z,3.57
2023-02-28T10:35:51.141Z,3.57
2023-02-28T10:38:22.345Z,3.45
2023-02-28T10:40:50.009Z,3.46
2023-02-28T10:43:22.904Z,3.45
2023-02-28T10:46:11.563Z,3.47
2023-02-28T10:48:41.655Z,3.58
2023-02-28T10:51:10.486Z,3.61
2023-02-28T10:54:00.155Z,3.60
2023-02-28T10:56:28.667Z,3.79
2023-02-28T10:58:58.713Z,4.09
2023-02-28T11:01:38.532Z,4.50
2023-02-28T11:04:18.994Z,4.64
2023-02-28T11:06:46.996Z,4.56
2023-02-28T11:09:21.216Z,4.56
2023-02-28T11:11:50.586Z,4.54
2023-02-28T11:14:23.041Z,4.43
2023-02-28T11:16:53.226Z,4.22
2023-02-28T11:19:24.549Z,4.23
2023-02-28T11:21:56.955Z,4.02
2023-02-28T11:24:29.310Z,3.95
2023-02-28T11:26:57.673Z,3.93
2023-02-28T11:29:27.355Z,3.75
2023-02-28T11:32:16.435Z,3.68
2023-02-28T11:34:45.216Z,3.67
2023-02-28T11:37:16.044Z,3.51
2023-02-28T11:39:44.543Z,3.53
2023-02-28T11:42:37.598Z,3.62
2023-02-28T11:45:16.797Z,3.87
2023-02-28T11:47:50.689Z,4.13
2023-02-28T11:50:44.211Z,3.97
2023-02-28T11:53:24.024Z,4.39
2023-02-28T11:55:55.866Z,4.49
2023-02-28T11:58:35.083Z,4.64
2023-02-28T12:01:17.378Z,4.69
2023-02-28T12:04:03.846Z,4.87
2023-02-28T12:06:36.746Z,4.80
2023-02-28T12:09:15.317Z,4.89
2023-02-28T12:11:53.866Z,4.81
2023-02-28T12:14:40.188Z,4.72
2023-02-28T12:17:21.336Z,4.78
2023-02-28T12:19:59.225Z,4.82
2023-02-28T12:22:30.827Z,4.85
2023-02-28T12:25:41.895Z,4.81
2023-02-28T12:28:13.817Z,4.99
2023-02-28T12:30:49.547Z,4.89
2023-02-28T12:33:20.786Z,5.08
2023-02-28T12:35:53.392Z,5.09
2023-02-28T12:38:24.284Z,5.17
2023-02-28T12:40:56.759Z,5.26
2023-02-28T12:43:32.771Z,5.43
2023-02-28T12:46:05.411Z,5.26
2023-02-28T12:48:39.394Z,4.95
2023-02-28T12:51:10.203Z,4.96
2023-02-28T12:53:51.906Z,4.91
2023-02-28T12:56:24.621Z,4.71
2023-02-28T12:58:56.485Z,4.53
2023-02-28T13:01:49.885Z,4.62
2023-02-28T13:04:38.554Z,4.75
2023-02-28T13:07:26.263Z,4.70
2023-02-28T13:09:54.553Z,4.95
2023-02-28T13:12:23.742Z,4.85
2023-02-28T13:14:51.925Z,4.81
2023-02-28T13:17:21.831Z,4.63
2023-02-28T13:20:00.451Z,4.31
2023-02-28T13:22:43.671Z,4.41
2023-02-28T13:25:54.415Z,4.27
2023-02-28T13:29:07.976Z,4.19
2023-02-28T13:32:27.119Z,4.08
2023-02-28T13:35:36.449Z,4.23
2023-02-28T13:38:33.673Z,4.60
2023-02-28T13:41:34.420Z,4.56
2023-02-28T13:44:04.614Z,4.63
2023-02-28T13:46:33.434Z,4.65
2023-02-28T13:49:21.837Z,4.63
2023-02-28T13:51:50.845Z,4.67
2023-02-28T13:54:34.919Z,4.61
2023-02-28T13:57:13.671Z,4.53
2023-02-28T13:59:52.378Z,4.65
2023-02-28T14:02:43.168Z,4.46
2023-02-28T14:05:16.871Z,4.42
2023-02-28T14:07:49.279Z,4.38
2023-02-28T14:10:30.400Z,4.27
2023-02-28T14:13:14.207Z,4.32
2023-02-28T14:15:49.598Z,4.12
2023-02-28T14:18:26.913Z,4.26
2023-02-28T14:20:59.212Z,4.28
2023-02-28T14:23:38.463Z,4.35
2023-02-28T14:26:22.681Z,4.46
2023-02-28T14:29:10.978Z,4.42
2023-02-28T14:31:46.724Z,4.47
2023-02-28T14:34:27.927Z,4.52
2023-02-28T14:36:56.306Z,4.37
2023-02-28T14:39:26.145Z,4.52
2023-02-28T14:41:55.500Z,4.53
2023-02-28T14:44:24.508Z,4.58
2023-02-28T14:46:55.503Z,4.53
2023-02-28T14:49:27.702Z,4.45
2023-02-28T14:52:05.600Z,4.50
2023-02-28T14:54:33.626Z,4.36
2023-02-28T14:57:02.334Z,4.27
2023-02-28T14:59:32.186Z,4.38
2023-02-28T15:02:20.345Z,4.25
2023-02-28T15:04:55.687Z,4.24
2023-02-28T15:07:29.196Z,4.01
2023-02-28T15:10:11.254Z,4.03
2023-02-28T15:12:42.167Z,3.96
2023-02-28T15:15:16.749Z,3.90
2023-02-28T15:17:48.740Z,3.93
2023-02-28T15:20:17.869Z,3.97
2023-02-28T15:22:47.044Z,4.02
2023-02-28T15:25:20.135Z,4.01
2023-02-28T15:27:51.768Z,3.94
2023-02-28T15:30:22.055Z,4.01
2023-02-28T15:33:06.606Z,3.86
2023-02-28T15:35:35.034Z,3.86
2023-02-28T15:38:05.209Z,3.85
2023-02-28T15:40:37.428Z,3.85
2023-02-28T15:43:10.110Z,3.87
2023-02-28T15:45:42.001Z,3.81
2023-02-28T15:48:19.323Z,3.79
2023-02-28T15:50:50.557Z,3.75
2023-02-28T15:53:21.085Z,3.75
2023-02-28T15:55:55.196Z,3.75
2023-02-28T15:58:30.300Z,3.66
2023-02-28T16:01:08.931Z,3.69
2023-02-28T16:03:42.804Z,3.61
2023-02-28T16:06:42.908Z,3.50
2023-02-28T16:09:14.135Z,3.39
2023-02-28T16:11:45.436Z,3.30
2023-02-28T16:14:20.257Z,3.27
2023-02-28T16:16:50.362Z,3.19
2023-02-28T16:19:17.919Z,3.13
2023-02-28T16:21:45.408Z,3.13
2023-02-28T16:24:13.093Z,3.00
2023-02-28T16:26:42.204Z,2.90
2023-02-28T16:29:14.704Z,2.79
2023-02-28T16:31:44.216Z,2.81
2023-02-28T16:34:12.244Z,2.67
2023-02-28T16:36:40.204Z,2.67
2023-02-28T16:39:09.843Z,2.61
2023-02-28T16:41:37.308Z,2.56
2023-02-28T16:44:12.826Z,2.44
2023-02-28T16:46:40.295Z,2.44
2023-02-28T16:49:13.112Z,2.42
2023-02-28T16:51:40.895Z,2.24
2023-02-28T16:54:08.336Z,2.12
2023-02-28T16:56:36.187Z,2.07
2023-02-28T16:59:04.500Z,1.92
2023-02-28T17:01:32.456Z,1.95
2023-02-28T17:04:00.077Z,1.95
2023-02-28T17:06:30.588Z,1.76
2023-02-28T17:09:01.382Z,1.79
2023-02-28T17:11:29.229Z,1.72
2023-02-28T17:13:56.727Z,1.46
2023-02-28T17:16:28.019Z,1.37
2023-02-28T17:18:57.018Z,1.25
2023-02-28T17:21:24.428Z,1.34
2023-02-28T17:23:56.246Z,1.31
2023-02-28T17:26:25.514Z,1.30
2023-02-28T17:28:53.490Z,1.31
2023-02-28T17:31:21.015Z,1.25
2023-02-28T17:33:48.451Z,1.16
2023-02-28T17:36:17.183Z,1.15
2023-02-28T17:38:44.628Z,1.17
2023-02-28T17:41:13.353Z,1.21
2023-02-28T17:43:40.877Z,1.31
2023-02-28T17:46:13.305Z,1.08
2023-02-28T17:48:40.711Z,0.87
2023-02-28T17:51:08.175Z,0.95
2023-02-28T17:53:35.588Z,0.93
2023-02-28T17:56:02.940Z,0.88
2023-02-28T17:58:32.199Z,0.73
2023-02-28T18:00:59.599Z,0.70
2023-02-28T18:03:28.958Z,0.56
2023-02-28T18:05:57.790Z,0.74
2023-02-28T18:08:25.263Z,0.55
2023-02-28T18:10:52.605Z,0.35
2023-02-28T18:13:20.009Z,0.24
2023-02-28T18:15:48.831Z,0.18
2023-02-28T18:18:16.614Z,0.12
2023-02-28T18:20:44.342Z,0.22
2023-02-28T18:23:11.735Z,0.21
2023-02-28T18:25:41.515Z,0.43
2023-02-28T18:28:09.234Z,0.39
2023-02-28T18:33:30.277Z,0.26
2023-02-28T18:35:57.804Z,0.07
2023-02-28T18:38:25.569Z,0.06
2023-02-28T18:40:54.957Z,0.04
2023-02-28T18:43:22.323Z,-0.12
2023-02-28T18:45:49.854Z,-0.13
2023-02-28T18:48:19.528Z,0.06
2023-02-28T18:50:52.193Z,-0.09
2023-02-28T18:53:20.351Z,-0.14
2023-02-28T18:55:47.762Z,-0.18
2023-02-28T18:58:15.178Z,0.09
2023-02-28T19:00:43.922Z,0.05
2023-02-28T19:03:13.001Z,0.02
2023-02-28T19:05:40.416Z,0.02
2023-02-28T19:08:09.218Z,0.10
2023-02-28T19:10:39.433Z,0.22
2023-02-28T19:13:06.940Z,0.28
2023-02-28T19:15:34.544Z,0.06
2023-02-28T19:18:02.378Z,-0.01
2023-02-28T19:20:31.188Z,-0.08
2023-02-28T19:23:00.476Z,0.01
2023-02-28T19:25:29.543Z,-0.16
2023-02-28T19:27:57.482Z,-0.44
2023-02-28T19:30:25.991Z,-0.59
2023-02-28T19:32:53.530Z,-0.47
2023-02-28T19:35:20.984Z,-0.36
2023-02-28T19:37:48.574Z,-0.37
2023-02-28T19:40:16.696Z,-0.22
2023-02-28T19:42:45.457Z,-0.34
2023-02-28T19:45:14.642Z,-0.44
2023-02-28T19:47:42.055Z,-0.57
2023-02-28T19:50:10.658Z,-0.72
2023-02-28T19:52:38.050Z,-0.83
2023-02-28T19:55:06.207Z,-0.66
2023-02-28T19:57:33.659Z,-0.76
2023-02-28T20:00:02.516Z,-0.79
2023-02-28T20:02:29.981Z,-0.78
2023-02-28T20:04:59.246Z,-0.83
2023-02-28T20:07:31.168Z,-0.95
2023-02-28T20:09:58.838Z,-0.70
2023-02-28T20:12:27.023Z,-0.85
2023-02-28T20:14:56.387Z,-0.82
2023-02-28T20:17:25.564Z,-0.87
2023-02-28T20:19:52.987Z,-0.94
2023-02-28T20:22:20.384Z,-0.74
2023-02-28T20:24:48.605Z,-0.95
2023-02-28T20:27:17.254Z,-0.99
2023-02-28T20:29:44.666Z,-1.00
2023-02-28T20:32:13.142Z,-0.98
2023-02-28T20:34:42.063Z,-1.05
2023-02-28T20:37:09.507Z,-1.07
2023-02-28T20:39:37.291Z,-1.07
2023-02-28T20:42:04.905Z,-0.87
2023-02-28T20:44:32.316Z,-0.92
2023-02-28T20:47:00.722Z,-1.01
2023-02-28T20:49:28.358Z,-1.16
2023-02-28T20:51:57.040Z,-1.27
2023-02-28T20:54:24.457Z,-1.26
2023-02-28T20:56:51.870Z,-1.28
2023-02-28T20:59:21.189Z,-1.22
2023-02-28T21:01:48.895Z,-1.27
2023-02-28T21:04:16.466Z,-1.31
2023-02-28T21:06:46.345Z,-1.26
2023-02-28T21:09:16.384Z,-1.29
2023-02-28T21:11:43.913Z,-1.21
2023-02-28T21:14:14.815Z,-1.28
2023-02-28T21:16:42.884Z,-1.34
2023-02-28T21:19:10.680Z,-1.24
2023-02-28T21:21:39.850Z,-1.40
2023-02-28T21:24:07.920Z,-1.42
2023-02-28T21:26:37.026Z,-1.27
2023-02-28T21:29:04.444Z,-1.43
2023-02-28T21:31:33.721Z,-1.45
2023-02-28T21:34:05.122Z,-1.50
2023-02-28T21:36:35.918Z,-1.63
2023-02-28T21:39:07.749Z,-1.37
2023-02-28T21:41:37.256Z,-1.45
2023-02-28T21:44:05.328Z,-1.57
2023-02-28T21:46:33.174Z,-1.51
2023-02-28T21:49:00.808Z,-1.47
2023-02-28T21:51:31.356Z,-1.54
2023-02-28T21:53:59.589Z,-1.73
2023-02-28T21:56:28.919Z,-1.80
2023-02-28T21:59:02.501Z,-1.90
2023-02-28T22:01:31.685Z,-2.05
2023-02-28T22:04:00.269Z,-2.15
2023-02-28T22:06:30.269Z,-2.10
2023-02-28T22:09:00.462Z,-2.04
2023-02-28T22:11:27.848Z,-1.95
2023-02-28T22:13:56.973Z,-2.03
2023-02-28T22:16:29.502Z,-2.20
2023-02-28T22:18:58.699Z,-2.12
2023-02-28T22:21:26.372Z,-2.04
2023-02-28T22:23:53.774Z,-2.14
2023-02-28T22:26:23.238Z,-2.11
2023-02-28T22:28:51.562Z,-1.97
2023-02-28T22:31:21.036Z,-1.95
2023-02-28T22:33:51.642Z,-2.13
2023-02-28T22:36:20.630Z,-2.05
2023-02-28T22:38:50.790Z,-2.02
2023-02-28T22:41:19.444Z,-2.10
2023-02-28T22:43:51.963Z,-2.06
2023-02-28T22:46:19.540Z,-2.03
2023-02-28T22:48:47.910Z,-1.89
2023-02-28T22:51:18.239Z,-1.81
2023-02-28T22:53:48.491Z,-1.70
2023-02-28T22:56:17.834Z,-1.74
2023-02-28T22:58:49.040Z,-1.69
2023-02-28T23:01:17.781Z,-1.85
2023-02-28T23:03:45.859Z,-1.87
2023-02-28T23:06:15.570Z,-1.79
2023-02-28T23:08:44.824Z,-1.97
2023-02-28T23:11:17.492Z,-2.07
2023-02-28T23:13:46.553Z,-2.05
2023-02-28T23:16:14.090Z,-2.15
2023-02-28T23:18:41.512Z,-2.27
2023-02-28T23:21:08.906Z,-2.28
2023-02-28T23:23:36.501Z,-2.11
2023-02-28T23:26:09.421Z,-2.23
2023-02-28T23:28:36.826Z,-2.21
2023-02-28T23:31:05.128Z,-2.32
2023-02-28T23:33:32.956Z,-2.41
2023-02-28T23:36:09.712Z,-2.45
2023-02-28T23:38:37.198Z,-2.51
2023-02-28T23:41:08.578Z,-2.40
2023-02-28T23:43:36.568Z,-2.27
2023-02-28T23:46:04.439Z,-2.36
2023-02-28T23:48:31.835Z,-2.37
2023-02-28T23:51:02.835Z,-2.53
2023-02-28T23:53:33.737Z,-2.67
2023-02-28T23:56:02.060Z,-2.73
2023-02-28T23:58:31.500Z,-2.45
